createdAt,value
2019-01-14T00:03:19.225Z,95951.86
2019-01-14T00:08:15.285Z,95961.15
2019-01-14T00:13:12.333Z,95947.02
2019-01-14T00:18:13.751Z,95946.85
2019-01-14T00:23:09.767Z,95950.24
2019-01-14T00:28:05.822Z,95959.02
2019-01-14T00:33:02.486Z,95956.62
2019-01-14T00:37:58.787Z,95956.85
2019-01-14T00:42:55.587Z,95949.92
2019-01-14T00:47:51.767Z,95965.95
2019-01-14T00:52:47.793Z,95976.58
2019-01-14T00:57:43.770Z,95985.48
2019-01-14T01:02:40.197Z,95978.63
2019-01-14T01:07:36.266Z,95986.61
2019-01-14T01:12:35.171Z,95981.89
2019-01-14T01:17:31.230Z,95990.42
2019-01-14T01:22:27.217Z,95986.09
2019-01-14T01:27:23.478Z,95985.62
2019-01-14T01:32:19.448Z,95988.09
2019-01-14T01:37:15.581Z,95986.68
2019-01-14T01:42:13.598Z,95996.05
2019-01-14T01:47:09.403Z,95988.92
2019-01-14T01:52:06.437Z,95996.69
2019-01-14T01:57:02.423Z,95988.98
2019-01-14T02:01:58.382Z,95989.60
2019-01-14T02:06:54.437Z,95988.73
2019-01-14T02:11:50.534Z,96012.68
2019-01-14T02:16:46.717Z,96024.78
2019-01-14T02:21:42.565Z,96054.24
2019-01-14T02:26:38.568Z,96084.85
2019-01-14T02:31:37.396Z,96107.58
2019-01-14T02:36:36.148Z,96104.19
2019-01-14T02:41:37.089Z,96116.39
2019-01-14T02:46:41.711Z,96128.63
2019-01-14T02:51:48.350Z,96138.33
2019-01-14T02:57:09.646Z,96138.55
2019-01-14T03:02:19.859Z,96149.64
2019-01-14T03:07:34.355Z,96158.08
2019-01-14T03:12:36.039Z,96158.37
2019-01-14T03:17:37.130Z,96150.61
2019-01-14T03:22:58.605Z,96173.00
2019-01-14T03:28:12.678Z,96189.69
2019-01-14T03:33:17.100Z,96176.94
2019-01-14T03:38:16.314Z,96172.25
2019-01-14T03:43:25.285Z,96175.41
2019-01-14T03:48:44.650Z,96166.83
2019-01-14T03:53:52.323Z,96174.52
2019-01-14T03:58:50.997Z,96188.03
2019-01-14T04:03:59.745Z,96194.16
2019-01-14T04:09:37.934Z,96203.83
2019-01-14T04:14:39.317Z,96226.13
2019-01-14T04:20:25.251Z,96242.91
2019-01-14T04:25:32.910Z,96240.87
2019-01-14T04:30:42.125Z,96251.23
2019-01-14T04:36:03.470Z,96260.11
2019-01-14T04:41:21.537Z,96271.17
2019-01-14T04:46:19.850Z,96282.63
2019-01-14T04:51:16.327Z,96303.02
2019-01-14T04:56:12.688Z,96301.66
2019-01-14T05:01:09.638Z,96312.12
2019-01-14T05:06:08.428Z,96316.92
2019-01-14T05:11:09.925Z,96331.55
2019-01-14T05:16:07.975Z,96347.73
2019-01-14T05:21:24.780Z,96362.36
2019-01-14T05:26:46.103Z,96369.48
2019-01-14T05:31:39.843Z,96362.32
2019-01-14T05:36:44.419Z,96361.70
2019-01-14T05:41:40.612Z,96370.78
2019-01-14T05:46:50.162Z,96385.38
2019-01-14T05:51:46.315Z,96392.71
2019-01-14T05:56:51.391Z,96403.13
2019-01-14T06:01:47.554Z,96420.33
2019-01-14T06:06:45.717Z,96450.22
2019-01-14T06:11:52.980Z,96438.44
2019-01-14T06:16:50.560Z,96433.29
2019-01-14T06:21:51.998Z,96434.77
2019-01-14T06:26:48.461Z,96437.42
2019-01-14T06:31:46.660Z,96442.78
2019-01-14T06:36:50.982Z,96461.64
2019-01-14T06:41:51.359Z,96473.39
2019-01-14T06:46:47.595Z,96462.80
2019-01-14T06:51:45.062Z,96476.00
2019-01-14T06:56:40.920Z,96464.87
2019-01-14T07:01:37.272Z,96471.16
2019-01-14T07:06:34.102Z,96493.84
2019-01-14T07:11:30.563Z,96493.06
2019-01-14T07:16:26.715Z,96496.84
2019-01-14T07:21:22.847Z,96499.48
2019-01-14T07:26:27.634Z,96515.47
2019-01-14T07:31:23.681Z,96519.70
2019-01-14T07:36:22.768Z,96525.47
2019-01-14T07:41:24.229Z,96532.84
2019-01-14T07:46:20.248Z,96549.66
2019-01-14T07:51:16.857Z,96566.03
2019-01-14T07:56:13.955Z,96579.77
2019-01-14T08:01:11.202Z,96591.63
2019-01-14T08:06:07.384Z,96590.02
2019-01-14T08:11:06.354Z,96596.91
2019-01-14T08:16:06.169Z,96616.23
2019-01-14T08:21:01.938Z,96619.47
2019-01-14T08:25:57.733Z,96623.66
2019-01-14T08:30:56.416Z,96631.22
2019-01-14T08:35:55.088Z,96644.47
2019-01-14T08:40:50.866Z,96657.06
2019-01-14T08:45:47.268Z,96664.05
2019-01-14T08:50:43.032Z,96667.70
2019-01-14T08:55:38.792Z,96681.59
2019-01-14T09:00:34.853Z,96700.62
2019-01-14T09:05:30.668Z,96681.02
2019-01-14T09:10:27.649Z,96703.46
2019-01-14T09:15:23.697Z,96701.48
2019-01-14T09:20:22.157Z,96699.71
2019-01-14T09:25:18.314Z,96705.20
2019-01-14T09:30:23.280Z,96709.66
2019-01-14T09:35:19.597Z,96712.05
2019-01-14T09:40:18.377Z,96701.72
2019-01-14T09:45:15.022Z,96708.48
2019-01-14T09:50:13.815Z,96720.72
2019-01-14T09:55:13.133Z,96737.27
2019-01-14T10:00:10.839Z,96744.72
2019-01-14T10:05:08.918Z,96743.17
2019-01-14T10:10:09.954Z,96736.13
2019-01-14T10:15:04.174Z,96744.88
2019-01-14T10:20:00.236Z,96743.36
2019-01-14T10:24:56.153Z,96744.84
2019-01-14T10:29:51.963Z,96743.42
2019-01-14T10:34:47.946Z,96736.49
2019-01-14T10:39:43.762Z,96736.13
2019-01-14T10:44:39.540Z,96718.67
2019-01-14T10:49:35.492Z,96711.77
2019-01-14T10:54:31.326Z,96713.86
2019-01-14T10:59:27.693Z,96708.41
2019-01-14T11:04:23.704Z,96711.95
2019-01-14T11:09:19.774Z,96700.58
2019-01-14T11:14:17.186Z,96700.73
2019-01-14T11:19:13.157Z,96699.80
2019-01-14T11:24:10.006Z,96706.13
2019-01-14T11:29:05.842Z,96709.68
2019-01-14T11:34:01.871Z,96705.78
2019-01-14T11:39:04.806Z,96709.52
2019-01-14T11:43:55.386Z,96711.22
2019-01-14T11:48:51.368Z,96715.80
2019-01-14T11:53:47.760Z,96707.53
2019-01-14T11:58:44.857Z,96716.45
2019-01-14T12:03:41.967Z,96717.61
2019-01-14T12:08:38.089Z,96711.98
2019-01-14T12:13:34.048Z,96716.29
2019-01-14T12:18:29.928Z,96714.02
2019-01-14T12:23:26.141Z,96719.70
2019-01-14T12:28:24.574Z,96722.95
2019-01-14T12:33:20.717Z,96721.72
2019-01-14T12:38:16.612Z,96722.39
2019-01-14T12:43:12.510Z,96738.42
2019-01-14T12:48:09.384Z,96734.45
2019-01-14T12:53:06.031Z,96738.93
2019-01-14T12:58:02.063Z,96736.67
2019-01-14T13:03:00.885Z,96739.92
2019-01-14T13:07:56.902Z,96749.94
2019-01-14T13:12:53.342Z,96742.49
2019-01-14T13:17:49.555Z,96741.04
2019-01-14T13:22:45.895Z,96744.16
2019-01-14T13:27:41.979Z,96752.17
2019-01-14T13:32:39.525Z,96744.82
2019-01-14T13:37:56.220Z,96735.80
2019-01-14T13:42:55.282Z,96743.09
2019-01-14T13:47:51.878Z,96738.39
2019-01-14T13:52:48.062Z,96738.12
2019-01-14T13:57:44.210Z,96765.89
2019-01-14T14:03:03.799Z,96756.41
2019-01-14T14:08:01.156Z,96767.84
2019-01-14T14:13:00.314Z,96765.77
2019-01-14T14:18:42.875Z,96757.27
2019-01-14T14:23:57.499Z,96770.91
2019-01-14T14:28:50.787Z,96778.42
2019-01-14T14:33:50.917Z,96780.30
2019-01-14T14:38:49.436Z,96789.22
2019-01-14T14:43:45.472Z,96812.66
2019-01-14T14:48:41.359Z,96830.89
2019-01-14T14:53:37.539Z,96847.20
2019-01-14T14:58:35.036Z,96842.73
2019-01-14T15:03:32.709Z,96844.22
2019-01-14T15:08:36.363Z,96850.11
2019-01-14T15:13:37.696Z,96865.50
2019-01-14T15:18:40.100Z,96861.89
2019-01-14T15:23:42.347Z,96864.12
2019-01-14T15:28:56.027Z,96872.97
2019-01-14T15:33:57.070Z,96879.42
2019-01-14T15:38:53.210Z,96892.86
2019-01-14T15:43:56.976Z,96890.44
2019-01-14T15:49:04.291Z,96894.34
2019-01-14T15:54:03.213Z,96901.67
2019-01-14T15:59:00.005Z,96902.50
2019-01-14T16:04:13.037Z,96905.97
2019-01-14T16:09:15.097Z,96917.19
2019-01-14T16:14:10.977Z,96929.02
2019-01-14T16:19:06.985Z,96937.58
2019-01-14T16:24:03.229Z,96944.66
2019-01-14T16:29:02.127Z,96952.28
2019-01-14T16:33:58.292Z,96962.45
2019-01-14T16:38:54.386Z,96974.34
2019-01-14T16:44:08.606Z,96989.92
2019-01-14T16:49:17.752Z,97005.73
2019-01-14T16:54:19.344Z,97020.92
2019-01-14T16:59:31.425Z,97024.97
2019-01-14T17:04:33.123Z,97048.70
2019-01-14T17:09:53.441Z,97057.19
2019-01-14T17:15:29.760Z,97076.86
2019-01-14T17:20:36.157Z,97110.33
2019-01-14T17:25:54.696Z,97128.94
2019-01-14T17:30:51.381Z,97146.40
2019-01-14T17:35:56.155Z,97152.84
2019-01-14T17:40:52.035Z,97145.77
2019-01-14T17:45:48.299Z,97150.64
2019-01-14T17:50:44.354Z,97152.05
2019-01-14T17:55:40.888Z,97158.67
2019-01-14T18:00:46.244Z,97159.97
2019-01-14T18:05:46.205Z,97162.41
2019-01-14T18:10:46.606Z,97156.66
2019-01-14T18:22:52.402Z,97174.52
2019-01-14T18:27:54.811Z,97179.95
2019-01-14T18:32:55.139Z,97185.48
2019-01-14T18:39:15.200Z,97198.28
2019-01-14T18:44:22.147Z,97199.59
2019-01-14T18:49:26.361Z,97205.05
2019-01-14T19:59:52.848Z,97304.64
2019-01-14T20:04:48.905Z,97301.42
2019-01-14T20:13:03.009Z,97307.27
2019-01-14T20:14:51.725Z,97315.18
2019-01-14T20:19:54.540Z,97314.17
2019-01-14T20:24:50.279Z,97320.15
2019-01-14T20:29:46.379Z,97331.14
2019-01-14T20:34:42.591Z,97328.41
2019-01-14T20:39:39.495Z,97334.43
2019-01-14T20:44:35.764Z,97331.70
2019-01-14T20:49:31.992Z,97335.13
2019-01-14T20:54:28.999Z,97337.72
2019-01-14T20:59:33.306Z,97346.39
2019-01-14T21:04:24.212Z,97349.16
2019-01-14T21:09:21.890Z,97360.73
2019-01-14T21:14:22.714Z,97367.04
2019-01-14T21:19:22.779Z,97372.67
2019-01-14T21:24:21.464Z,97373.39
2019-01-14T21:29:17.528Z,97375.24
2019-01-14T21:34:13.613Z,97386.27
2019-01-14T21:39:13.487Z,97386.80
2019-01-14T21:44:09.586Z,97382.83
2019-01-14T21:49:05.730Z,97390.59
2019-01-14T21:54:01.672Z,97392.22
2019-01-14T21:58:57.776Z,97396.33
2019-01-14T22:04:03.146Z,97391.77
2019-01-14T22:08:59.240Z,97420.45
2019-01-14T22:13:55.039Z,97416.34
2019-01-14T22:18:51.008Z,97412.18
2019-01-14T22:23:46.868Z,97403.86
2019-01-14T22:28:53.190Z,97411.23
2019-01-14T22:34:28.522Z,97427.78
2019-01-14T22:50:23.365Z,97463.99
2019-01-14T22:55:25.860Z,97471.34
2019-01-14T23:01:41.735Z,97477.06
2019-01-14T23:06:49.451Z,97487.98
2019-01-14T23:11:54.188Z,97489.45
2019-01-14T23:17:08.161Z,97490.33
2019-01-14T23:22:17.257Z,97486.81
2019-01-14T23:27:33.157Z,97485.91
2019-01-14T23:32:53.933Z,97498.41
2019-01-14T23:37:53.455Z,97512.14
2019-01-14T23:42:54.352Z,97515.66
2019-01-14T23:48:00.003Z,97518.30
2019-01-14T23:53:09.578Z,97522.84
2019-01-14T23:58:17.080Z,97529.24
